sensor_id;sensor_type;location;lat;lon;timestamp;pressure;altitude;pressure_sealevel;temperature;humidity
71873;BME280;59745;52.924;-2.388;2022-08-01T00:02:50;99690.85;;;21.66;31.23
71873;BME280;59745;52.924;-2.388;2022-08-01T00:05:14;99683.63;;;21.95;31.07
71873;BME280;59745;52.924;-2.388;2022-08-01T00:07:39;99682.06;;;21.70;31.58
71873;BME280;59745;52.924;-2.388;2022-08-01T00:10:07;99678.71;;;21.89;31.78
71873;BME280;59745;52.924;-2.388;2022-08-01T00:12:29;99683.09;;;21.70;32.01
71873;BME280;59745;52.924;-2.388;2022-08-01T00:14:55;99683.79;;;21.37;32.50
71873;BME280;59745;52.924;-2.388;2022-08-01T00:17:20;99682.05;;;21.07;32.79
71873;BME280;59745;52.924;-2.388;2022-08-01T00:19:45;99681.90;;;21.28;32.65
71873;BME280;59745;52.924;-2.388;2022-08-01T00:22:10;99683.01;;;21.23;32.51
71873;BME280;59745;52.924;-2.388;2022-08-01T00:24:36;99683.70;;;21.13;32.71
71873;BME280;59745;52.924;-2.388;2022-08-01T00:27:01;99685.24;;;21.11;32.82
71873;BME280;59745;52.924;-2.388;2022-08-01T00:29:26;99689.13;;;21.58;32.71
71873;BME280;59745;52.924;-2.388;2022-08-01T00:31:51;99691.76;;;21.46;32.82
71873;BME280;59745;52.924;-2.388;2022-08-01T00:34:16;99685.74;;;21.24;33.22
71873;BME280;59745;52.924;-2.388;2022-08-01T00:36:41;99686.04;;;20.96;33.42
71873;BME280;59745;52.924;-2.388;2022-08-01T00:39:06;99688.28;;;20.78;33.41
71873;BME280;59745;52.924;-2.388;2022-08-01T00:41:32;99689.46;;;21.01;33.02
71873;BME280;59745;52.924;-2.388;2022-08-01T00:43:57;99697.97;;;20.78;33.35
71873;BME280;59745;52.924;-2.388;2022-08-01T00:46:22;99704.37;;;20.88;33.71
71873;BME280;59745;52.924;-2.388;2022-08-01T00:48:47;99702.46;;;20.35;33.89
71873;BME280;59745;52.924;-2.388;2022-08-01T00:51:13;99699.99;;;20.33;33.97
71873;BME280;59745;52.924;-2.388;2022-08-01T00:53:39;99699.11;;;20.91;33.74
71873;BME280;59745;52.924;-2.388;2022-08-01T00:56:03;99697.30;;;20.67;33.71
71873;BME280;59745;52.924;-2.388;2022-08-01T00:58:28;99700.61;;;21.16;33.32
71873;BME280;59745;52.924;-2.388;2022-08-01T01:00:53;99700.07;;;20.93;33.22
71873;BME280;59745;52.924;-2.388;2022-08-01T01:03:18;99699.91;;;20.38;33.65
71873;BME280;59745;52.924;-2.388;2022-08-01T01:05:56;99701.55;;;20.36;33.85
71873;BME280;59745;52.924;-2.388;2022-08-01T01:08:16;99701.09;;;20.42;33.89
71873;BME280;59745;52.924;-2.388;2022-08-01T01:10:40;99698.95;;;20.89;33.67
71873;BME280;59745;52.924;-2.388;2022-08-01T01:13:02;99697.92;;;20.86;33.64
71873;BME280;59745;52.924;-2.388;2022-08-01T01:15:30;99697.21;;;21.02;32.79
71873;BME280;59745;52.924;-2.388;2022-08-01T01:17:54;99692.35;;;21.03;32.66
71873;BME280;59745;52.924;-2.388;2022-08-01T01:20:16;99690.02;;;21.02;33.05
71873;BME280;59745;52.924;-2.388;2022-08-01T01:22:50;99685.77;;;21.22;32.79
71873;BME280;59745;52.924;-2.388;2022-08-01T01:27:41;99677.54;;;20.91;32.53
71873;BME280;59745;52.924;-2.388;2022-08-01T01:29:57;99677.27;;;20.83;32.77
71873;BME280;59745;52.924;-2.388;2022-08-01T01:32:26;99676.52;;;20.48;33.23
71873;BME280;59745;52.924;-2.388;2022-08-01T01:34:49;99672.02;;;20.63;33.71
71873;BME280;59745;52.924;-2.388;2022-08-01T01:37:15;99674.95;;;20.72;33.54
71873;BME280;59745;52.924;-2.388;2022-08-01T01:39:38;99672.74;;;20.87;33.41
71873;BME280;59745;52.924;-2.388;2022-08-01T01:42:04;99670.72;;;20.75;33.11
71873;BME280;59745;52.924;-2.388;2022-08-01T01:44:27;99669.91;;;20.95;33.11
71873;BME280;59745;52.924;-2.388;2022-08-01T01:46:53;99669.51;;;20.48;33.55
71873;BME280;59745;52.924;-2.388;2022-08-01T01:49:19;99673.45;;;20.50;33.88
71873;BME280;59745;52.924;-2.388;2022-08-01T01:51:43;99675.82;;;20.20;34.29
71873;BME280;59745;52.924;-2.388;2022-08-01T01:54:08;99670.52;;;20.27;34.49
71873;BME280;59745;52.924;-2.388;2022-08-01T01:56:35;99669.91;;;20.32;34.35
71873;BME280;59745;52.924;-2.388;2022-08-01T01:59:01;99670.27;;;20.74;33.92
71873;BME280;59745;52.924;-2.388;2022-08-01T02:01:27;99676.14;;;20.84;33.62
71873;BME280;59745;52.924;-2.388;2022-08-01T02:03:50;99680.96;;;20.59;33.90
71873;BME280;59745;52.924;-2.388;2022-08-01T02:06:15;99682.39;;;20.90;33.45
71873;BME280;59745;52.924;-2.388;2022-08-01T02:08:40;99681.09;;;20.60;33.38
71873;BME280;59745;52.924;-2.388;2022-08-01T02:11:05;99677.29;;;20.82;33.37
71873;BME280;59745;52.924;-2.388;2022-08-01T02:13:30;99675.11;;;20.79;33.55
71873;BME280;59745;52.924;-2.388;2022-08-01T02:15:55;99673.49;;;20.67;33.57
71873;BME280;59745;52.924;-2.388;2022-08-01T02:18:20;99671.42;;;20.52;33.57
71873;BME280;59745;52.924;-2.388;2022-08-01T02:20:45;99671.11;;;20.86;33.14
71873;BME280;59745;52.924;-2.388;2022-08-01T02:23:11;99672.21;;;20.52;33.57
71873;BME280;59745;52.924;-2.388;2022-08-01T02:25:39;99672.62;;;20.46;33.90
71873;BME280;59745;52.924;-2.388;2022-08-01T02:28:04;99671.02;;;20.68;33.40
71873;BME280;59745;52.924;-2.388;2022-08-01T02:30:27;99672.67;;;20.36;33.87
71873;BME280;59745;52.924;-2.388;2022-08-01T02:32:54;99669.00;;;20.35;34.07
71873;BME280;59745;52.924;-2.388;2022-08-01T02:35:20;99664.49;;;20.54;33.66
71873;BME280;59745;52.924;-2.388;2022-08-01T02:37:43;99665.66;;;20.34;33.90
71873;BME280;59745;52.924;-2.388;2022-08-01T02:40:08;99669.98;;;20.18;34.14
71873;BME280;59745;52.924;-2.388;2022-08-01T02:42:32;99671.33;;;20.33;34.13
71873;BME280;59745;52.924;-2.388;2022-08-01T02:44:58;99669.40;;;20.48;33.26
71873;BME280;59745;52.924;-2.388;2022-08-01T02:47:24;99665.90;;;20.61;33.47
71873;BME280;59745;52.924;-2.388;2022-08-01T02:49:51;99665.87;;;20.02;33.64
71873;BME280;59745;52.924;-2.388;2022-08-01T02:52:16;99665.24;;;20.22;33.80
71873;BME280;59745;52.924;-2.388;2022-08-01T02:54:39;99663.96;;;20.50;33.61
71873;BME280;59745;52.924;-2.388;2022-08-01T02:57:06;99668.77;;;20.41;33.70
71873;BME280;59745;52.924;-2.388;2022-08-01T02:59:29;99668.54;;;20.70;33.19
71873;BME280;59745;52.924;-2.388;2022-08-01T03:01:55;99665.90;;;20.78;32.89
71873;BME280;59745;52.924;-2.388;2022-08-01T03:04:20;99662.02;;;20.62;33.19
71873;BME280;59745;52.924;-2.388;2022-08-01T03:06:44;99660.64;;;20.65;33.13
71873;BME280;59745;52.924;-2.388;2022-08-01T03:09:10;99657.16;;;20.54;33.35
71873;BME280;59745;52.924;-2.388;2022-08-01T03:11:37;99653.05;;;20.50;33.22
71873;BME280;59745;52.924;-2.388;2022-08-01T03:14:02;99649.81;;;20.12;33.76
71873;BME280;59745;52.924;-2.388;2022-08-01T03:16:26;99651.13;;;20.34;33.59
71873;BME280;59745;52.924;-2.388;2022-08-01T03:18:52;99649.39;;;20.43;33.12
71873;BME280;59745;52.924;-2.388;2022-08-01T03:21:16;99652.99;;;20.34;33.29
71873;BME280;59745;52.924;-2.388;2022-08-01T03:23:41;99652.97;;;20.25;33.37
71873;BME280;59745;52.924;-2.388;2022-08-01T03:26:06;99653.36;;;20.00;33.69
71873;BME280;59745;52.924;-2.388;2022-08-01T03:28:31;99649.07;;;20.05;33.88
71873;BME280;59745;52.924;-2.388;2022-08-01T03:30:58;99645.82;;;20.13;33.57
71873;BME280;59745;52.924;-2.388;2022-08-01T03:33:21;99645.17;;;20.16;33.35
71873;BME280;59745;52.924;-2.388;2022-08-01T03:35:49;99645.59;;;20.04;33.48
71873;BME280;59745;52.924;-2.388;2022-08-01T03:38:16;99650.60;;;19.98;33.51
71873;BME280;59745;52.924;-2.388;2022-08-01T03:40:39;99652.90;;;19.88;33.75
71873;BME280;59745;52.924;-2.388;2022-08-01T03:43:05;99650.35;;;20.06;33.85
71873;BME280;59745;52.924;-2.388;2022-08-01T03:45:31;99646.06;;;20.24;33.91
71873;BME280;59745;52.924;-2.388;2022-08-01T03:47:59;99645.38;;;19.72;33.88
71873;BME280;59745;52.924;-2.388;2022-08-01T03:50:20;99644.63;;;19.69;33.84
71873;BME280;59745;52.924;-2.388;2022-08-01T03:52:45;99648.58;;;19.60;33.94
71873;BME280;59745;52.924;-2.388;2022-08-01T03:55:10;99645.94;;;19.53;34.16
71873;BME280;59745;52.924;-2.388;2022-08-01T03:57:34;99647.50;;;19.68;34.22
71873;BME280;59745;52.924;-2.388;2022-08-01T04:00:00;99649.81;;;19.80;34.41
71873;BME280;59745;52.924;-2.388;2022-08-01T04:02:25;99649.53;;;19.27;34.52
71873;BME280;59745;52.924;-2.388;2022-08-01T04:04:50;99643.28;;;19.58;34.85
71873;BME280;59745;52.924;-2.388;2022-08-01T04:07:22;99641.13;;;19.76;34.76
71873;BME280;59745;52.924;-2.388;2022-08-01T04:09:41;99642.45;;;19.61;34.39
71873;BME280;59745;52.924;-2.388;2022-08-01T04:12:05;99644.74;;;19.65;34.74
71873;BME280;59745;52.924;-2.388;2022-08-01T04:14:31;99645.74;;;19.56;34.95
71873;BME280;59745;52.924;-2.388;2022-08-01T04:16:55;99646.44;;;19.67;33.92
71873;BME280;59745;52.924;-2.388;2022-08-01T04:19:20;99647.68;;;19.32;34.29
71873;BME280;59745;52.924;-2.388;2022-08-01T04:21:46;99646.39;;;19.83;34.54
71873;BME280;59745;52.924;-2.388;2022-08-01T04:24:13;99645.67;;;19.59;34.45
71873;BME280;59745;52.924;-2.388;2022-08-01T04:26:37;99641.28;;;19.88;33.46
71873;BME280;59745;52.924;-2.388;2022-08-01T04:29:02;99646.17;;;19.89;33.29
71873;BME280;59745;52.924;-2.388;2022-08-01T04:31:27;99639.90;;;19.87;33.69
71873;BME280;59745;52.924;-2.388;2022-08-01T04:33:53;99636.56;;;19.53;34.03
71873;BME280;59745;52.924;-2.388;2022-08-01T04:36:19;99630.40;;;20.34;33.75
71873;BME280;59745;52.924;-2.388;2022-08-01T04:38:45;99627.19;;;20.04;33.08
71873;BME280;59745;52.924;-2.388;2022-08-01T04:41:11;99626.76;;;20.44;33.35
71873;BME280;59745;52.924;-2.388;2022-08-01T04:43:33;99632.17;;;19.93;33.66
71873;BME280;59745;52.924;-2.388;2022-08-01T04:45:58;99628.73;;;19.63;33.96
71873;BME280;59745;52.924;-2.388;2022-08-01T04:48:23;99628.89;;;19.72;34.09
71873;BME280;59745;52.924;-2.388;2022-08-01T04:50:48;99625.09;;;20.12;33.25
71873;BME280;59745;52.924;-2.388;2022-08-01T04:53:14;99625.89;;;20.22;33.02
71873;BME280;59745;52.924;-2.388;2022-08-01T04:55:38;99631.94;;;19.79;33.64
71873;BME280;59745;52.924;-2.388;2022-08-01T04:58:04;99633.08;;;19.85;33.85
71873;BME280;59745;52.924;-2.388;2022-08-01T05:00:29;99634.59;;;20.08;33.90
71873;BME280;59745;52.924;-2.388;2022-08-01T05:02:54;99641.00;;;20.18;33.37
71873;BME280;59745;52.924;-2.388;2022-08-01T05:05:19;99640.06;;;20.00;33.65
71873;BME280;59745;52.924;-2.388;2022-08-01T05:07:44;99639.45;;;20.14;33.61
71873;BME280;59745;52.924;-2.388;2022-08-01T05:10:09;99643.21;;;20.43;32.97
71873;BME280;59745;52.924;-2.388;2022-08-01T05:12:35;99641.15;;;20.31;33.41
71873;BME280;59745;52.924;-2.388;2022-08-01T05:15:00;99641.24;;;20.29;33.44
71873;BME280;59745;52.924;-2.388;2022-08-01T05:17:25;99640.34;;;20.22;33.57
71873;BME280;59745;52.924;-2.388;2022-08-01T05:19:50;99639.04;;;20.18;33.72
71873;BME280;59745;52.924;-2.388;2022-08-01T05:22:15;99640.89;;;20.19;33.71
71873;BME280;59745;52.924;-2.388;2022-08-01T05:24:41;99639.89;;;19.99;34.06
71873;BME280;59745;52.924;-2.388;2022-08-01T05:27:06;99639.37;;;19.83;34.29
71873;BME280;59745;52.924;-2.388;2022-08-01T05:29:32;99635.21;;;19.71;34.62
71873;BME280;59745;52.924;-2.388;2022-08-01T05:31:57;99634.99;;;19.97;34.83
71873;BME280;59745;52.924;-2.388;2022-08-01T05:34:22;99634.27;;;19.79;34.91
71873;BME280;59745;52.924;-2.388;2022-08-01T05:36:48;99630.80;;;19.97;35.07
71873;BME280;59745;52.924;-2.388;2022-08-01T05:39:14;99632.29;;;19.77;35.51
71873;BME280;59745;52.924;-2.388;2022-08-01T05:41:39;99631.57;;;19.79;35.81
71873;BME280;59745;52.924;-2.388;2022-08-01T05:44:03;99630.79;;;20.33;34.55
71873;BME280;59745;52.924;-2.388;2022-08-01T05:46:28;99632.68;;;20.43;34.47
71873;BME280;59745;52.924;-2.388;2022-08-01T05:48:53;99637.28;;;20.37;34.46
71873;BME280;59745;52.924;-2.388;2022-08-01T05:51:18;99638.80;;;20.42;34.46
71873;BME280;59745;52.924;-2.388;2022-08-01T05:53:44;99638.19;;;20.58;34.35
71873;BME280;59745;52.924;-2.388;2022-08-01T05:56:09;99643.47;;;20.47;34.74
71873;BME280;59745;52.924;-2.388;2022-08-01T05:58:34;99648.66;;;20.54;35.13
71873;BME280;59745;52.924;-2.388;2022-08-01T06:00:59;99652.46;;;20.73;35.19
71873;BME280;59745;52.924;-2.388;2022-08-01T06:03:24;99657.31;;;20.67;35.29
71873;BME280;59745;52.924;-2.388;2022-08-01T06:05:51;99662.96;;;20.93;35.33
71873;BME280;59745;52.924;-2.388;2022-08-01T06:08:15;99658.18;;;21.29;35.24
71873;BME280;59745;52.924;-2.388;2022-08-01T06:10:40;99662.29;;;21.62;35.15
71873;BME280;59745;52.924;-2.388;2022-08-01T06:13:05;99667.03;;;21.76;34.38
71873;BME280;59745;52.924;-2.388;2022-08-01T06:15:30;99666.94;;;22.13;33.61
71873;BME280;59745;52.924;-2.388;2022-08-01T06:17:55;99665.41;;;22.23;33.62
71873;BME280;59745;52.924;-2.388;2022-08-01T06:20:21;99669.69;;;22.15;33.36
71873;BME280;59745;52.924;-2.388;2022-08-01T06:22:46;99674.63;;;22.23;33.35
71873;BME280;59745;52.924;-2.388;2022-08-01T06:25:11;99676.67;;;22.42;32.51
71873;BME280;59745;52.924;-2.388;2022-08-01T06:27:36;99676.74;;;22.48;32.65
71873;BME280;59745;52.924;-2.388;2022-08-01T06:30:01;99679.94;;;22.55;32.73
71873;BME280;59745;52.924;-2.388;2022-08-01T06:32:26;99678.08;;;22.77;32.43
71873;BME280;59745;52.924;-2.388;2022-08-01T06:34:51;99679.26;;;22.98;31.80
71873;BME280;59745;52.924;-2.388;2022-08-01T06:37:16;99677.89;;;22.79;31.87
71873;BME280;59745;52.924;-2.388;2022-08-01T06:39:41;99679.40;;;22.90;31.85
71873;BME280;59745;52.924;-2.388;2022-08-01T06:42:07;99676.26;;;22.70;32.01
71873;BME280;59745;52.924;-2.388;2022-08-01T06:44:32;99674.20;;;22.77;31.98
71873;BME280;59745;52.924;-2.388;2022-08-01T06:46:57;99674.73;;;23.10;31.99
71873;BME280;59745;52.924;-2.388;2022-08-01T06:49:22;99675.22;;;22.99;31.73
71873;BME280;59745;52.924;-2.388;2022-08-01T06:51:47;99670.45;;;22.83;31.71
71873;BME280;59745;52.924;-2.388;2022-08-01T06:54:12;99673.80;;;23.17;31.75
71873;BME280;59745;52.924;-2.388;2022-08-01T06:56:37;99679.85;;;23.50;31.32
71873;BME280;59745;52.924;-2.388;2022-08-01T06:59:02;99678.00;;;23.66;30.66
71873;BME280;59745;52.924;-2.388;2022-08-01T07:01:28;99678.57;;;23.31;30.59
71873;BME280;59745;52.924;-2.388;2022-08-01T07:03:53;99671.83;;;23.57;31.16
71873;BME280;59745;52.924;-2.388;2022-08-01T07:06:18;99668.70;;;23.51;31.10
71873;BME280;59745;52.924;-2.388;2022-08-01T07:08:43;99661.83;;;23.78;31.48
71873;BME280;59745;52.924;-2.388;2022-08-01T07:11:08;99658.36;;;24.08;31.12
71873;BME280;59745;52.924;-2.388;2022-08-01T07:13:33;99653.95;;;24.95;29.34
71873;BME280;59745;52.924;-2.388;2022-08-01T07:15:58;99650.78;;;25.51;29.21
71873;BME280;59745;52.924;-2.388;2022-08-01T07:18:23;99649.70;;;26.01;28.64
71873;BME280;59745;52.924;-2.388;2022-08-01T07:20:48;99647.29;;;26.12;27.47
71873;BME280;59745;52.924;-2.388;2022-08-01T07:23:13;99643.64;;;26.66;26.97
71873;BME280;59745;52.924;-2.388;2022-08-01T07:25:38;99646.65;;;27.35;25.44
71873;BME280;59745;52.924;-2.388;2022-08-01T07:28:04;99643.52;;;27.64;24.33
71873;BME280;59745;52.924;-2.388;2022-08-01T07:30:28;99642.58;;;27.56;24.43
71873;BME280;59745;52.924;-2.388;2022-08-01T07:32:53;99641.22;;;27.85;23.87
71873;BME280;59745;52.924;-2.388;2022-08-01T07:35:19;99636.99;;;28.11;23.74
71873;BME280;59745;52.924;-2.388;2022-08-01T07:37:44;99635.12;;;28.76;23.91
71873;BME280;59745;52.924;-2.388;2022-08-01T07:40:11;99637.77;;;28.89;22.10
71873;BME280;59745;52.924;-2.388;2022-08-01T07:42:36;99636.19;;;29.49;22.50
71873;BME280;59745;52.924;-2.388;2022-08-01T07:45:02;99633.07;;;30.19;21.60
71873;BME280;59745;52.924;-2.388;2022-08-01T07:47:28;99634.24;;;30.21;21.69
71873;BME280;59745;52.924;-2.388;2022-08-01T07:49:59;99631.19;;;30.39;19.98
71873;BME280;59745;52.924;-2.388;2022-08-01T07:52:19;99632.99;;;30.06;20.10
71873;BME280;59745;52.924;-2.388;2022-08-01T07:54:45;99634.38;;;29.74;20.32
71873;BME280;59745;52.924;-2.388;2022-08-01T07:57:11;99629.90;;;29.75;21.01
71873;BME280;59745;52.924;-2.388;2022-08-01T07:59:37;99631.36;;;29.88;20.99
71873;BME280;59745;52.924;-2.388;2022-08-01T08:02:03;99630.35;;;29.83;21.68
71873;BME280;59745;52.924;-2.388;2022-08-01T08:04:29;99633.15;;;30.33;21.62
71873;BME280;59745;52.924;-2.388;2022-08-01T08:06:54;99635.19;;;30.22;21.08
71873;BME280;59745;52.924;-2.388;2022-08-01T08:09:20;99640.36;;;31.20;21.78
71873;BME280;59745;52.924;-2.388;2022-08-01T08:11:46;99643.89;;;30.96;22.01
71873;BME280;59745;52.924;-2.388;2022-08-01T08:14:12;99643.07;;;31.26;21.68
71873;BME280;59745;52.924;-2.388;2022-08-01T08:16:38;99642.69;;;31.15;21.69
71873;BME280;59745;52.924;-2.388;2022-08-01T08:19:04;99644.21;;;31.23;21.07
71873;BME280;59745;52.924;-2.388;2022-08-01T08:21:29;99643.37;;;31.98;20.93
71873;BME280;59745;52.924;-2.388;2022-08-01T08:23:55;99643.10;;;31.69;20.34
71873;BME280;59745;52.924;-2.388;2022-08-01T08:26:21;99637.05;;;32.14;21.16
71873;BME280;59745;52.924;-2.388;2022-08-01T08:28:47;99634.08;;;32.20;21.09
71873;BME280;59745;52.924;-2.388;2022-08-01T08:31:12;99630.92;;;32.49;20.49
71873;BME280;59745;52.924;-2.388;2022-08-01T08:33:38;99637.55;;;32.59;20.64
71873;BME280;59745;52.924;-2.388;2022-08-01T08:36:04;99647.48;;;32.71;20.37
71873;BME280;59745;52.924;-2.388;2022-08-01T08:38:30;99651.43;;;32.42;19.41
71873;BME280;59745;52.924;-2.388;2022-08-01T08:40:57;99643.31;;;32.60;18.57
71873;BME280;59745;52.924;-2.388;2022-08-01T08:43:22;99636.22;;;32.70;19.28
71873;BME280;59745;52.924;-2.388;2022-08-01T08:45:48;99629.73;;;32.91;19.50
71873;BME280;59745;52.924;-2.388;2022-08-01T08:48:13;99625.72;;;32.66;19.06
71873;BME280;59745;52.924;-2.388;2022-08-01T08:50:40;99622.82;;;33.07;18.84
71873;BME280;59745;52.924;-2.388;2022-08-01T08:53:05;99618.30;;;33.40;18.83
71873;BME280;59745;52.924;-2.388;2022-08-01T08:55:30;99626.60;;;33.50;18.52
71873;BME280;59745;52.924;-2.388;2022-08-01T08:57:56;99631.34;;;33.76;18.50
71873;BME280;59745;52.924;-2.388;2022-08-01T09:00:22;99625.31;;;33.57;17.97
71873;BME280;59745;52.924;-2.388;2022-08-01T09:02:48;99625.13;;;33.99;17.85
71873;BME280;59745;52.924;-2.388;2022-08-01T09:05:13;99622.31;;;33.97;17.28
71873;BME280;59745;52.924;-2.388;2022-08-01T09:07:39;99621.68;;;33.86;18.24
71873;BME280;59745;52.924;-2.388;2022-08-01T09:10:06;99626.96;;;33.88;16.89
71873;BME280;59745;52.924;-2.388;2022-08-01T09:12:31;99622.85;;;33.97;16.52
71873;BME280;59745;52.924;-2.388;2022-08-01T09:14:57;99623.58;;;33.51;17.52
71873;BME280;59745;52.924;-2.388;2022-08-01T09:17:23;99621.46;;;33.28;17.83
71873;BME280;59745;52.924;-2.388;2022-08-01T09:19:50;99621.83;;;33.64;18.98
71873;BME280;59745;52.924;-2.388;2022-08-01T09:22:16;99623.21;;;33.49;17.69
71873;BME280;59745;52.924;-2.388;2022-08-01T09:24:40;99629.39;;;33.86;17.98
71873;BME280;59745;52.924;-2.388;2022-08-01T09:27:15;99624.18;;;33.52;17.21
71873;BME280;59745;52.924;-2.388;2022-08-01T09:29:31;99629.46;;;33.78;17.70
71873;BME280;59745;52.924;-2.388;2022-08-01T09:31:57;99627.05;;;33.60;17.41
71873;BME280;59745;52.924;-2.388;2022-08-01T09:34:25;99633.09;;;34.09;18.57
71873;BME280;59745;52.924;-2.388;2022-08-01T09:36:51;99633.98;;;33.96;18.05
71873;BME280;59745;52.924;-2.388;2022-08-01T09:39:15;99636.17;;;33.87;17.60
71873;BME280;59745;52.924;-2.388;2022-08-01T09:41:41;99638.13;;;33.94;17.34
71873;BME280;59745;52.924;-2.388;2022-08-01T09:44:06;99641.69;;;34.26;18.02
71873;BME280;59745;52.924;-2.388;2022-08-01T09:46:32;99640.07;;;34.22;19.13
71873;BME280;59745;52.924;-2.388;2022-08-01T09:48:59;99636.97;;;34.25;18.73
71873;BME280;59745;52.924;-2.388;2022-08-01T09:51:30;99636.47;;;34.26;17.75
71873;BME280;59745;52.924;-2.388;2022-08-01T09:53:49;99631.21;;;34.02;17.71
71873;BME280;59745;52.924;-2.388;2022-08-01T09:56:15;99631.70;;;33.77;17.23
71873;BME280;59745;52.924;-2.388;2022-08-01T09:58:51;99633.12;;;34.10;18.35
71873;BME280;59745;52.924;-2.388;2022-08-01T10:01:07;99633.73;;;33.76;18.10
71873;BME280;59745;52.924;-2.388;2022-08-01T10:03:32;99638.90;;;33.58;18.14
71873;BME280;59745;52.924;-2.388;2022-08-01T10:05:58;99640.89;;;33.64;17.90
71873;BME280;59745;52.924;-2.388;2022-08-01T10:08:24;99640.88;;;33.46;18.92
71873;BME280;59745;52.924;-2.388;2022-08-01T10:13:16;99643.91;;;32.99;19.85
71873;BME280;59745;52.924;-2.388;2022-08-01T10:15:42;99641.76;;;33.06;19.24
71873;BME280;59745;52.924;-2.388;2022-08-01T10:18:09;99642.09;;;32.85;19.02
71873;BME280;59745;52.924;-2.388;2022-08-01T10:20:33;99640.44;;;32.98;17.90
71873;BME280;59745;52.924;-2.388;2022-08-01T10:23:01;99640.61;;;32.36;20.05
71873;BME280;59745;52.924;-2.388;2022-08-01T10:25:27;99637.33;;;32.71;20.14
71873;BME280;59745;52.924;-2.388;2022-08-01T10:27:53;99633.33;;;32.52;18.60
71873;BME280;59745;52.924;-2.388;2022-08-01T10:30:16;99626.40;;;32.90;18.48
71873;BME280;59745;52.924;-2.388;2022-08-01T10:32:42;99626.75;;;32.81;20.19
71873;BME280;59745;52.924;-2.388;2022-08-01T10:35:09;99623.24;;;32.65;19.75
71873;BME280;59745;52.924;-2.388;2022-08-01T10:37:35;99627.09;;;32.76;20.02
71873;BME280;59745;52.924;-2.388;2022-08-01T10:40:00;99621.92;;;32.83;20.51
71873;BME280;59745;52.924;-2.388;2022-08-01T10:42:25;99619.88;;;32.31;19.83
71873;BME280;59745;52.924;-2.388;2022-08-01T10:44:51;99618.87;;;32.70;19.06
71873;BME280;59745;52.924;-2.388;2022-08-01T10:47:23;99613.15;;;32.50;19.80
71873;BME280;59745;52.924;-2.388;2022-08-01T10:49:47;99617.91;;;32.65;19.95
71873;BME280;59745;52.924;-2.388;2022-08-01T10:52:14;99616.01;;;32.79;19.85
71873;BME280;59745;52.924;-2.388;2022-08-01T10:54:39;99616.55;;;32.56;19.52
71873;BME280;59745;52.924;-2.388;2022-08-01T10:57:00;99612.97;;;32.15;20.37
71873;BME280;59745;52.924;-2.388;2022-08-01T10:59:28;99611.04;;;32.19;20.94
71873;BME280;59745;52.924;-2.388;2022-08-01T11:01:58;99609.35;;;32.27;20.54
71873;BME280;59745;52.924;-2.388;2022-08-01T11:04:18;99605.12;;;32.55;18.61
71873;BME280;59745;52.924;-2.388;2022-08-01T11:06:54;99598.12;;;32.87;18.42
71873;BME280;59745;52.924;-2.388;2022-08-01T11:09:23;99594.83;;;33.16;20.23
71873;BME280;59745;52.924;-2.388;2022-08-01T11:14:02;99588.72;;;33.02;19.94
71873;BME280;59745;52.924;-2.388;2022-08-01T11:16:28;99580.38;;;33.11;20.79
71873;BME280;59745;52.924;-2.388;2022-08-01T11:18:52;99586.01;;;32.16;20.55
71873;BME280;59745;52.924;-2.388;2022-08-01T11:21:18;99578.75;;;32.90;19.86
71873;BME280;59745;52.924;-2.388;2022-08-01T11:23:47;99578.28;;;32.36;18.61
71873;BME280;59745;52.924;-2.388;2022-08-01T11:26:12;99576.73;;;32.02;20.70
71873;BME280;59745;52.924;-2.388;2022-08-01T11:28:36;99571.22;;;31.96;20.30
71873;BME280;59745;52.924;-2.388;2022-08-01T11:38:23;99556.76;;;32.31;20.25
71873;BME280;59745;52.924;-2.388;2022-08-01T11:40:45;99556.57;;;32.45;20.28
71873;BME280;59745;52.924;-2.388;2022-08-01T11:43:17;99558.12;;;32.97;20.68
71873;BME280;59745;52.924;-2.388;2022-08-01T11:45:46;99555.61;;;32.96;19.44
71873;BME280;59745;52.924;-2.388;2022-08-01T11:50:30;99558.01;;;33.41;18.83
71873;BME280;59745;52.924;-2.388;2022-08-01T11:52:57;99551.16;;;32.44;19.15
71873;BME280;59745;52.924;-2.388;2022-08-01T11:55:20;99553.68;;;32.60;21.04
71873;BME280;59745;52.924;-2.388;2022-08-01T11:57:46;99554.34;;;32.60;20.14
71873;BME280;59745;52.924;-2.388;2022-08-01T12:00:13;99557.52;;;31.85;21.40
71873;BME280;59745;52.924;-2.388;2022-08-01T12:02:37;99552.88;;;32.39;20.55
71873;BME280;59745;52.924;-2.388;2022-08-01T12:05:05;99545.40;;;32.04;19.63
71873;BME280;59745;52.924;-2.388;2022-08-01T12:07:30;99550.16;;;32.03;20.12
71873;BME280;59745;52.924;-2.388;2022-08-01T12:10:00;99556.46;;;32.08;19.56
71873;BME280;59745;52.924;-2.388;2022-08-01T12:12:20;99552.98;;;31.91;19.89
71873;BME280;59745;52.924;-2.388;2022-08-01T12:14:53;99546.59;;;31.43;21.60
71873;BME280;59745;52.924;-2.388;2022-08-01T12:17:12;99547.05;;;31.70;21.21
71873;BME280;59745;52.924;-2.388;2022-08-01T12:19:38;99541.25;;;32.03;20.01
71873;BME280;59745;52.924;-2.388;2022-08-01T12:22:06;99539.72;;;31.85;20.70
71873;BME280;59745;52.924;-2.388;2022-08-01T12:24:30;99537.04;;;32.51;20.55
71873;BME280;59745;52.924;-2.388;2022-08-01T12:26:55;99524.34;;;32.66;19.85
71873;BME280;59745;52.924;-2.388;2022-08-01T12:29:32;99525.90;;;32.92;19.56
71873;BME280;59745;52.924;-2.388;2022-08-01T12:31:47;99521.98;;;32.49;18.99
71873;BME280;59745;52.924;-2.388;2022-08-01T12:34:26;99522.22;;;32.49;20.02
71873;BME280;59745;52.924;-2.388;2022-08-01T12:36:39;99515.92;;;32.71;22.52
71873;BME280;59745;52.924;-2.388;2022-08-01T12:39:04;99512.44;;;32.24;20.00
71873;BME280;59745;52.924;-2.388;2022-08-01T12:41:30;99502.22;;;32.55;19.87
71873;BME280;59745;52.924;-2.388;2022-08-01T12:43:56;99495.29;;;32.61;19.97
71873;BME280;59745;52.924;-2.388;2022-08-01T12:46:22;99492.02;;;32.54;20.68
71873;BME280;59745;52.924;-2.388;2022-08-01T12:48:48;99490.31;;;32.82;20.70
71873;BME280;59745;52.924;-2.388;2022-08-01T12:51:14;99486.57;;;33.11;20.48
71873;BME280;59745;52.924;-2.388;2022-08-01T12:53:40;99486.81;;;32.57;20.23
71873;BME280;59745;52.924;-2.388;2022-08-01T12:56:05;99481.77;;;32.66;20.62
71873;BME280;59745;52.924;-2.388;2022-08-01T12:58:32;99480.45;;;32.80;20.02